Time,TemperatureF,DewpointF,PressureIn,WindDirection,WindDirectionDegrees,WindSpeedMPH,WindSpeedGustMPH,Humidity,HourlyPrecipIn,Conditions,Clouds,dailyrainin,SolarRadiationWatts/m^2,SoftwareType,DateUTC
2013-02-04 00:04:00,25.4,14.0,30.32,North,355,0.0,-999.0,62,-99.99,,,0.00,0,weatherlink.com 1.10,2013-02-04 07:04:00,
2013-02-04 00:19:00,20.1,12.0,30.32,North,355,0.0,-999.0,72,-99.99,,,0.00,0,weatherlink.com 1.10,2013-02-04 07:19:00,
2013-02-04 00:34:00,19.8,13.0,30.31,North,360,0.0,-999.0,76,-99.99,,,0.00,0,weatherlink.com 1.10,2013-02-04 07:34:00,
2013-02-04 00:49:00,21.8,15.0,30.30,WNW,287,3.0,-999.0,76,-99.99,,,0.00,0,weatherlink.com 1.10,2013-02-04 07:49:00,
2013-02-04 01:04:00,24.7,15.0,30.30,WSW,242,0.0,-999.0,67,-99.99,,,0.00,0,weatherlink.com 1.10,2013-02-04 08:04:00,
2013-02-04 01:19:00,26.3,15.0,30.29,SW,227,3.0,-999.0,62,-99.99,,,0.00,0,weatherlink.com 1.10,2013-02-04 08:19:00,
2013-02-04 01:34:00,27.0,15.0,30.29,South,190,6.0,-999.0,60,-99.99,,,0.00,0,weatherlink.com 1.10,2013-02-04 08:34:00,
2013-02-04 01:49:00,27.0,15.0,30.29,SSE,166,0.0,-999.0,60,-99.99,,,0.00,0,weatherlink.com 1.10,2013-02-04 08:49:00,
2013-02-04 02:04:00,28.4,14.0,30.29,South,169,0.0,-999.0,55,-99.99,,,0.00,0,weatherlink.com 1.10,2013-02-04 09:04:00,
2013-02-04 02:20:00,28.3,14.0,30.29,SE,143,0.0,-999.0,55,-99.99,,,0.00,0,weatherlink.com 1.10,2013-02-04 09:20:00,
2013-02-04 02:34:00,28.0,14.0,30.28,SE,138,0.0,-999.0,55,-99.99,,,0.00,0,weatherlink.com 1.10,2013-02-04 09:34:00,
2013-02-04 02:49:00,27.9,14.0,30.28,SE,136,0.0,-999.0,55,-99.99,,,0.00,0,weatherlink.com 1.10,2013-02-04 09:49:00,
2013-02-04 03:04:00,28.5,13.0,30.27,SE,134,0.0,-999.0,53,-99.99,,,0.00,0,weatherlink.com 1.10,2013-02-04 10:04:00,
2013-02-04 03:19:00,27.6,13.0,30.26,East,94,0.0,-999.0,54,-99.99,,,0.00,0,weatherlink.com 1.10,2013-02-04 10:19:00,
2013-02-04 03:35:00,26.0,14.0,30.27,NNW,346,4.0,-999.0,62,-99.99,,,0.00,0,weatherlink.com 1.10,2013-02-04 10:35:00,
2013-02-04 03:50:00,20.7,13.0,30.26,NE,42,1.0,-999.0,72,-99.99,,,0.00,0,weatherlink.com 1.10,2013-02-04 10:50:00,
2013-02-04 04:05:00,19.7,14.0,30.26,NE,36,0.0,-999.0,77,-99.99,,,0.00,0,weatherlink.com 1.10,2013-02-04 11:05:00,
2013-02-04 04:20:00,20.0,14.0,30.25,NW,323,0.0,-999.0,78,-99.99,,,0.00,0,weatherlink.com 1.10,2013-02-04 11:20:00,
2013-02-04 04:35:00,22.6,15.0,30.25,NW,325,0.0,-999.0,73,-99.99,,,0.00,0,weatherlink.com 1.10,2013-02-04 11:35:00,
2013-02-04 04:50:00,24.4,16.0,30.24,NNW,338,0.0,-999.0,69,-99.99,,,0.00,0,weatherlink.com 1.10,2013-02-04 11:50:00,
2013-02-04 05:05:00,27.1,15.0,30.24,ENE,65,0.0,-999.0,60,-99.99,,,0.00,0,weatherlink.com 1.10,2013-02-04 12:05:00,
2013-02-04 05:20:00,28.5,14.0,30.25,ENE,65,4.0,-999.0,56,-99.99,,,0.00,0,weatherlink.com 1.10,2013-02-04 12:20:00,
2013-02-04 05:35:00,30.1,15.0,30.25,NNE,32,0.0,-999.0,53,-99.99,,,0.00,0,weatherlink.com 1.10,2013-02-04 12:35:00,
2013-02-04 05:50:00,28.9,14.0,30.25,WNW,288,2.0,-999.0,53,-99.99,,,0.00,0,weatherlink.com 1.10,2013-02-04 12:50:00,
2013-02-04 06:05:00,30.8,14.0,30.24,SW,232,0.0,-999.0,49,-99.99,,,0.00,0,weatherlink.com 1.10,2013-02-04 13:05:00,
2013-02-04 06:20:00,31.2,13.0,30.24,WNW,283,3.0,-999.0,47,-99.99,,,0.00,0,weatherlink.com 1.10,2013-02-04 13:20:00,
2013-02-04 06:35:00,31.4,13.0,30.23,WSW,238,8.0,-999.0,47,-99.99,,,0.00,0,weatherlink.com 1.10,2013-02-04 13:35:00,
2013-02-04 06:50:00,32.1,13.0,30.23,SW,234,13.0,-999.0,46,-99.99,,,0.00,0,weatherlink.com 1.10,2013-02-04 13:50:00,
2013-02-04 07:05:00,32.0,13.0,30.23,SSE,156,2.0,-999.0,46,-99.99,,,0.00,0,weatherlink.com 1.10,2013-02-04 14:05:00,
2013-02-04 07:20:00,32.9,14.0,30.22,WNW,283,15.0,-999.0,46,-99.99,,,0.00,0,weatherlink.com 1.10,2013-02-04 14:20:00,
2013-02-04 07:35:00,35.8,14.0,30.21,West,273,16.0,-999.0,41,-99.99,,,0.00,12,weatherlink.com 1.10,2013-02-04 14:35:00,
2013-02-04 07:50:00,36.4,14.0,30.21,WNW,282,19.0,-999.0,40,-99.99,,,0.00,39,weatherlink.com 1.10,2013-02-04 14:50:00,
2013-02-04 08:05:00,38.0,14.0,30.21,West,267,19.0,-999.0,37,-99.99,,,0.00,84,weatherlink.com 1.10,2013-02-04 15:05:00,
2013-02-04 08:21:00,38.2,14.0,30.20,WSW,257,16.0,-999.0,37,-99.99,,,0.00,125,weatherlink.com 1.10,2013-02-04 15:21:00,
2013-02-04 08:36:00,38.2,14.0,30.19,West,275,28.0,-999.0,38,-99.99,,,0.00,169,weatherlink.com 1.10,2013-02-04 15:36:00,
2013-02-04 08:51:00,38.5,15.0,30.18,NW,317,22.0,-999.0,38,-99.99,,,0.00,262,weatherlink.com 1.10,2013-02-04 15:51:00,
2013-02-04 09:06:00,39.4,15.0,30.19,West,279,22.0,-999.0,37,-99.99,,,0.00,309,weatherlink.com 1.10,2013-02-04 16:06:00,
2013-02-04 09:20:00,40.9,16.0,30.20,WNW,290,12.0,-999.0,36,-99.99,,,0.00,355,weatherlink.com 1.10,2013-02-04 16:20:00,
2013-02-04 09:35:00,42.3,16.0,30.19,NW,307,20.0,-999.0,34,-99.99,,,0.00,359,weatherlink.com 1.10,2013-02-04 16:35:00,
2013-02-04 09:51:00,42.9,15.0,30.19,WNW,282,16.0,-999.0,32,-99.99,,,0.00,359,weatherlink.com 1.10,2013-02-04 16:51:00,
2013-02-04 10:06:00,44.6,16.0,30.20,NW,320,7.0,-999.0,32,-99.99,,,0.00,501,weatherlink.com 1.10,2013-02-04 17:06:00,
2013-02-04 10:21:00,45.0,16.0,30.19,WNW,291,22.0,-999.0,31,-99.99,,,0.00,390,weatherlink.com 1.10,2013-02-04 17:21:00,
2013-02-04 10:36:00,45.6,16.0,30.18,WNW,289,21.0,-999.0,30,-99.99,,,0.00,534,weatherlink.com 1.10,2013-02-04 17:36:00,
2013-02-04 10:51:00,45.8,15.0,30.18,WNW,289,22.0,-999.0,29,-99.99,,,0.00,490,weatherlink.com 1.10,2013-02-04 17:51:00,
2013-02-04 11:06:00,46.3,15.0,30.18,WSW,257,12.0,-999.0,29,-99.99,,,0.00,531,weatherlink.com 1.10,2013-02-04 18:06:00,
2013-02-04 11:21:00,48.0,16.0,30.17,WNW,282,21.0,-999.0,28,-99.99,,,0.00,555,weatherlink.com 1.10,2013-02-04 18:21:00,
2013-02-04 11:51:00,47.4,17.0,30.16,WNW,282,19.0,-999.0,30,-99.99,,,0.00,494,weatherlink.com 1.10,2013-02-04 18:51:00,
2013-02-04 12:06:00,48.7,18.0,30.14,NW,326,12.0,-999.0,29,-99.99,,,0.00,598,weatherlink.com 1.10,2013-02-04 19:06:00,
2013-02-04 12:21:00,47.6,18.0,30.13,WNW,286,15.0,-999.0,31,-99.99,,,0.00,584,weatherlink.com 1.10,2013-02-04 19:21:00,
2013-02-04 12:36:00,48.6,18.0,30.12,NW,308,14.0,-999.0,30,-99.99,,,0.00,582,weatherlink.com 1.10,2013-02-04 19:36:00,
2013-02-04 12:51:00,49.1,18.0,30.11,WNW,284,18.0,-999.0,29,-99.99,,,0.00,543,weatherlink.com 1.10,2013-02-04 19:51:00,
2013-02-04 13:06:00,49.6,18.0,30.10,WNW,294,24.0,-999.0,29,-99.99,,,0.00,557,weatherlink.com 1.10,2013-02-04 20:06:00,
2013-02-04 13:21:00,49.0,19.0,30.11,WNW,283,24.0,-999.0,30,-99.99,,,0.00,304,weatherlink.com 1.10,2013-02-04 20:21:00,
2013-02-04 13:36:00,49.2,19.0,30.10,WNW,302,27.0,-999.0,30,-99.99,,,0.00,563,weatherlink.com 1.10,2013-02-04 20:36:00,
2013-02-04 13:51:00,49.6,18.0,30.10,WNW,286,27.0,-999.0,29,-99.99,,,0.00,508,weatherlink.com 1.10,2013-02-04 20:51:00,
2013-02-04 14:06:00,48.1,19.0,30.10,WNW,296,21.0,-999.0,31,-99.99,,,0.00,315,weatherlink.com 1.10,2013-02-04 21:06:00,
2013-02-04 14:21:00,47.4,19.0,30.10,WNW,290,22.0,-999.0,32,-99.99,,,0.00,278,weatherlink.com 1.10,2013-02-04 21:21:00,
2013-02-04 14:36:00,47.3,19.0,30.08,WNW,289,24.0,-999.0,32,-99.99,,,0.00,204,weatherlink.com 1.10,2013-02-04 21:36:00,
2013-02-04 14:51:00,47.4,19.0,30.09,WNW,288,23.0,-999.0,33,-99.99,,,0.00,258,weatherlink.com 1.10,2013-02-04 21:51:00,
2013-02-04 15:07:00,47.8,19.0,30.08,WNW,290,23.0,-999.0,32,-99.99,,,0.00,357,weatherlink.com 1.10,2013-02-04 22:07:00,
2013-02-04 15:21:00,48.0,19.0,30.08,WNW,289,34.0,-999.0,32,-99.99,,,0.00,396,weatherlink.com 1.10,2013-02-04 22:21:00,
2013-02-04 15:36:00,48.0,19.0,30.08,WNW,294,26.0,-999.0,32,-99.99,,,0.00,341,weatherlink.com 1.10,2013-02-04 22:36:00,
2013-02-04 15:51:00,48.0,19.0,30.08,WNW,292,14.0,-999.0,32,-99.99,,,0.00,304,weatherlink.com 1.10,2013-02-04 22:51:00,
2013-02-04 16:06:00,48.3,20.0,30.07,WNW,296,23.0,-999.0,32,-99.99,,,0.00,253,weatherlink.com 1.10,2013-02-04 23:06:00,
2013-02-04 16:22:00,47.9,19.0,30.08,WNW,292,23.0,-999.0,32,-99.99,,,0.00,176,weatherlink.com 1.10,2013-02-04 23:22:00,
2013-02-04 16:36:00,46.5,19.0,30.06,WNW,290,30.0,-999.0,34,-99.99,,,0.00,120,weatherlink.com 1.10,2013-02-04 23:36:00,
2013-02-04 16:51:00,45.6,19.0,30.06,WNW,286,23.0,-999.0,35,-99.99,,,0.00,67,weatherlink.com 1.10,2013-02-04 23:51:00,
2013-02-04 17:07:00,45.0,19.0,30.06,West,281,25.0,-999.0,36,-99.99,,,0.00,32,weatherlink.com 1.10,2013-02-05 00:07:00,
2013-02-04 17:22:00,44.7,19.0,30.05,WNW,288,30.0,-999.0,36,-99.99,,,0.00,11,weatherlink.com 1.10,2013-02-05 00:22:00,
2013-02-04 17:36:00,44.0,19.0,30.05,WNW,287,28.0,-999.0,37,-99.99,,,0.00,0,weatherlink.com 1.10,2013-02-05 00:36:00,
2013-02-04 17:51:00,43.7,19.0,30.04,WNW,294,34.0,-999.0,37,-99.99,,,0.00,0,weatherlink.com 1.10,2013-02-05 00:51:00,
2013-02-04 18:06:00,43.4,19.0,30.05,WNW,293,22.0,-999.0,38,-99.99,,,0.00,0,weatherlink.com 1.10,2013-02-05 01:06:00,
2013-02-04 18:21:00,43.2,19.0,30.05,WNW,291,23.0,-999.0,38,-99.99,,,0.00,0,weatherlink.com 1.10,2013-02-05 01:21:00,
2013-02-04 18:36:00,42.8,19.0,30.06,WNW,296,21.0,-999.0,38,-99.99,,,0.00,0,weatherlink.com 1.10,2013-02-05 01:36:00,
2013-02-04 18:51:00,42.5,19.0,30.07,WNW,293,23.0,-999.0,39,-99.99,,,0.00,0,weatherlink.com 1.10,2013-02-05 01:51:00,
2013-02-04 19:06:00,42.5,19.0,30.07,WNW,294,29.0,-999.0,39,-99.99,,,0.00,0,weatherlink.com 1.10,2013-02-05 02:06:00,
2013-02-04 19:21:00,42.4,19.0,30.07,WNW,296,25.0,-999.0,40,-99.99,,,0.00,0,weatherlink.com 1.10,2013-02-05 02:21:00,
2013-02-04 19:36:00,42.6,19.0,30.08,WNW,286,24.0,-999.0,39,-99.99,,,0.00,0,weatherlink.com 1.10,2013-02-05 02:36:00,
2013-02-04 19:52:00,42.5,20.0,30.08,WNW,286,24.0,-999.0,40,-99.99,,,0.00,0,weatherlink.com 1.10,2013-02-05 02:52:00,
2013-02-04 20:06:00,42.3,19.0,30.08,WNW,294,18.0,-999.0,40,-99.99,,,0.00,0,weatherlink.com 1.10,2013-02-05 03:06:00,
2013-02-04 20:21:00,42.0,20.0,30.08,WNW,288,23.0,-999.0,41,-99.99,,,0.00,0,weatherlink.com 1.10,2013-02-05 03:21:00,
2013-02-04 20:37:00,42.2,19.0,30.08,WNW,283,16.0,-999.0,40,-99.99,,,0.00,0,weatherlink.com 1.10,2013-02-05 03:37:00,
2013-02-04 20:52:00,41.8,20.0,30.09,WNW,301,14.0,-999.0,41,-99.99,,,0.00,0,weatherlink.com 1.10,2013-02-05 03:52:00,
2013-02-04 21:07:00,41.3,20.0,30.09,West,281,22.0,-999.0,42,-99.99,,,0.00,0,weatherlink.com 1.10,2013-02-05 04:07:00,
2013-02-04 21:22:00,41.5,19.0,30.08,WNW,291,13.0,-999.0,41,-99.99,,,0.00,0,weatherlink.com 1.10,2013-02-05 04:22:00,
2013-02-04 21:37:00,41.2,20.0,30.09,WNW,290,11.0,-999.0,42,-99.99,,,0.00,0,weatherlink.com 1.10,2013-02-05 04:37:00,
2013-02-04 21:52:00,41.0,19.0,30.10,WNW,284,11.0,-999.0,42,-99.99,,,0.00,0,weatherlink.com 1.10,2013-02-05 04:52:00,
2013-02-04 22:07:00,40.9,19.0,30.09,West,271,2.0,-999.0,41,-99.99,,,0.00,0,weatherlink.com 1.10,2013-02-05 05:07:00,
2013-02-04 22:22:00,41.5,19.0,30.08,WNW,290,10.0,-999.0,40,-99.99,,,0.00,0,weatherlink.com 1.10,2013-02-05 05:22:00,
2013-02-04 22:37:00,41.3,18.0,30.09,WNW,290,0.0,-999.0,40,-99.99,,,0.00,0,weatherlink.com 1.10,2013-02-05 05:37:00,
2013-02-04 22:52:00,39.9,19.0,30.09,WNW,300,0.0,-999.0,43,-99.99,,,0.00,0,weatherlink.com 1.10,2013-02-05 05:52:00,
2013-02-04 23:07:00,38.6,19.0,30.10,ESE,114,1.0,-999.0,45,-99.99,,,0.00,0,weatherlink.com 1.10,2013-02-05 06:07:00,
2013-02-04 23:22:00,38.5,19.0,30.10,ENE,60,4.0,-999.0,45,-99.99,,,0.00,0,weatherlink.com 1.10,2013-02-05 06:22:00,
2013-02-04 23:37:00,38.3,19.0,30.10,North,5,0.0,-999.0,45,-99.99,,,0.00,0,weatherlink.com 1.10,2013-02-05 06:37:00,
2013-02-04 23:52:00,39.6,19.0,30.10,North,360,1.0,-999.0,43,-99.99,,,0.00,0,weatherlink.com 1.10,2013-02-05 06:52:00,